createdAt,value
2018-04-29T00:00:13.660Z,15.96
2018-04-29T00:02:42.019Z,15.94
2018-04-29T00:05:10.362Z,15.91
2018-04-29T00:07:38.692Z,15.88
2018-04-29T00:10:08.505Z,15.81
2018-04-29T00:12:36.850Z,15.67
2018-04-29T00:15:05.181Z,15.65
2018-04-29T00:17:34.579Z,15.66
2018-04-29T00:20:03.779Z,15.63
2018-04-29T00:22:32.873Z,15.67
2018-04-29T00:25:02.008Z,15.71
2018-04-29T00:27:31.557Z,15.73
2018-04-29T00:29:59.901Z,15.76
2018-04-29T00:32:28.253Z,15.76
2018-04-29T00:34:56.592Z,15.80
2018-04-29T00:37:25.012Z,15.83
2018-04-29T00:39:53.354Z,15.85
2018-04-29T00:42:24.154Z,15.85
2018-04-29T00:44:53.247Z,15.80
2018-04-29T00:47:22.409Z,15.67
2018-04-29T00:49:50.753Z,15.63
2018-04-29T00:52:23.191Z,15.61
2018-04-29T00:54:54.953Z,15.64
2018-04-29T00:57:24.202Z,15.64
2018-04-29T00:59:56.074Z,15.66
2018-04-29T01:02:29.513Z,15.66
2018-04-29T01:05:00.684Z,15.66
2018-04-29T01:07:34.290Z,15.64
2018-04-29T01:10:09.043Z,15.66
2018-04-29T01:12:38.322Z,15.68
2018-04-29T01:15:08.902Z,15.74
2018-04-29T01:17:40.524Z,15.78
2018-04-29T01:20:11.741Z,15.73
2018-04-29T01:22:42.713Z,15.69
2018-04-29T01:25:14.729Z,15.68
2018-04-29T01:27:45.516Z,15.61
2018-04-29T01:30:16.257Z,15.57
2018-04-29T01:32:47.071Z,15.53
2018-04-29T01:35:17.750Z,15.55
2018-04-29T01:37:51.384Z,15.54
2018-04-29T01:40:22.210Z,15.49
2018-04-29T01:42:53.672Z,15.51
2018-04-29T01:45:24.671Z,15.52
2018-04-29T01:47:55.793Z,15.49
2018-04-29T01:50:27.329Z,15.48
2018-04-29T01:52:59.886Z,15.44
2018-04-29T01:55:32.023Z,15.45
2018-04-29T01:58:04.097Z,15.40
2018-04-29T02:00:34.816Z,15.39
2018-04-29T02:03:04.127Z,15.35
2018-04-29T02:05:34.610Z,15.32
2018-04-29T02:08:06.416Z,15.26
2018-04-29T02:10:36.182Z,15.20
2018-04-29T02:13:06.292Z,15.17
2018-04-29T02:15:39.233Z,15.13
2018-04-29T02:18:09.645Z,15.09
2018-04-29T02:20:40.776Z,15.02
2018-04-29T02:23:12.830Z,14.93
2018-04-29T02:25:44.856Z,14.84
2018-04-29T02:28:16.439Z,14.81
2018-04-29T02:30:48.843Z,14.81
2018-04-29T02:33:18.695Z,14.76
2018-04-29T02:35:49.373Z,14.62
2018-04-29T02:38:19.375Z,14.57
2018-04-29T02:40:50.779Z,14.61
2018-04-29T02:43:23.277Z,14.57
2018-04-29T02:45:54.431Z,14.47
2018-04-29T02:48:25.910Z,14.41
2018-04-29T02:50:54.606Z,14.35
2018-04-29T02:53:24.530Z,14.23
2018-04-29T02:55:53.592Z,14.18
2018-04-29T02:58:25.005Z,14.14
2018-04-29T03:00:57.652Z,14.11
2018-04-29T03:03:28.017Z,14.09
2018-04-29T03:05:56.867Z,14.01
2018-04-29T03:08:27.471Z,13.99
2018-04-29T03:10:58.683Z,14.01
2018-04-29T03:13:28.710Z,13.99
2018-04-29T03:16:01.857Z,13.94
2018-04-29T03:18:30.998Z,13.91
2018-04-29T03:21:02.132Z,13.85
2018-04-29T03:23:32.251Z,13.80
2018-04-29T03:26:06.429Z,13.76
2018-04-29T03:28:36.739Z,13.73
2018-04-29T03:31:05.649Z,13.70
2018-04-29T03:33:37.895Z,13.67
2018-04-29T03:36:09.534Z,13.70
2018-04-29T03:38:40.898Z,13.67
2018-04-29T03:41:11.999Z,13.64
2018-04-29T03:43:43.138Z,13.58
2018-04-29T03:46:13.939Z,13.55
2018-04-29T03:48:44.320Z,13.56
2018-04-29T03:51:15.459Z,13.51
2018-04-29T03:53:45.349Z,13.47
2018-04-29T03:56:15.709Z,13.43
2018-04-29T03:59:03.262Z,13.40
2018-04-29T04:01:51.705Z,13.42
2018-04-29T04:04:22.541Z,13.38
2018-04-29T04:06:53.315Z,13.38
2018-04-29T04:09:23.750Z,13.36
2018-04-29T04:11:53.955Z,13.33
2018-04-29T04:14:27.037Z,13.31
2018-04-29T04:16:58.484Z,13.30
2018-04-29T04:19:29.395Z,13.27
2018-04-29T04:22:00.461Z,13.25
2018-04-29T04:24:30.599Z,13.24
2018-04-29T04:27:01.967Z,13.20
2018-04-29T04:29:32.612Z,13.20
2018-04-29T04:32:04.454Z,13.20
2018-04-29T04:34:34.984Z,13.19
2018-04-29T04:37:08.637Z,13.20
2018-04-29T04:39:39.522Z,13.21
2018-04-29T04:42:13.094Z,13.20
2018-04-29T04:44:43.273Z,13.16
2018-04-29T04:47:15.332Z,13.15
2018-04-29T04:49:47.209Z,13.17
2018-04-29T04:52:17.883Z,13.16
2018-04-29T04:54:52.796Z,13.16
2018-04-29T04:57:22.770Z,13.19
2018-04-29T04:59:53.977Z,13.19
2018-04-29T05:02:25.206Z,13.23
2018-04-29T05:04:57.743Z,13.25
2018-04-29T05:07:29.081Z,13.27
2018-04-29T05:09:59.817Z,13.27
2018-04-29T05:12:30.093Z,13.30
2018-04-29T05:15:03.027Z,13.34
2018-04-29T05:17:33.203Z,13.39
2018-04-29T05:20:03.280Z,13.41
2018-04-29T05:22:36.566Z,13.46
2018-04-29T05:25:10.677Z,13.51
2018-04-29T05:27:44.530Z,13.58
2018-04-29T05:30:15.179Z,13.62
2018-04-29T05:32:46.274Z,13.69
2018-04-29T05:35:19.432Z,13.74
2018-04-29T05:37:51.197Z,13.76
2018-04-29T05:40:22.060Z,13.85
2018-04-29T05:42:52.973Z,13.93
2018-04-29T05:45:24.671Z,14.00
2018-04-29T05:47:56.650Z,14.09
2018-04-29T05:50:27.844Z,14.20
2018-04-29T05:53:00.412Z,14.25
2018-04-29T05:55:34.045Z,14.29
2018-04-29T05:58:02.810Z,14.34
2018-04-29T06:00:33.677Z,14.44
2018-04-29T06:03:04.121Z,14.49
2018-04-29T06:05:36.243Z,14.55
2018-04-29T06:08:08.854Z,14.61
2018-04-29T06:10:39.607Z,14.67
2018-04-29T06:13:18.444Z,14.75
2018-04-29T06:15:49.913Z,14.82
2018-04-29T06:18:21.279Z,14.89
2018-04-29T06:20:53.223Z,14.94
2018-04-29T06:23:24.971Z,14.97
2018-04-29T06:25:57.524Z,15.02
2018-04-29T06:28:29.934Z,15.10
2018-04-29T06:31:02.792Z,15.16
2018-04-29T06:33:32.501Z,15.19
2018-04-29T06:36:02.666Z,15.24
2018-04-29T06:38:31.867Z,15.33
2018-04-29T06:41:05.529Z,15.41
2018-04-29T06:43:36.928Z,15.48
2018-04-29T06:46:09.653Z,15.58
2018-04-29T06:48:42.806Z,15.68
2018-04-29T06:51:14.092Z,15.78
2018-04-29T06:53:52.130Z,15.84
2018-04-29T06:56:21.822Z,15.90
2018-04-29T06:58:52.936Z,15.92
2018-04-29T07:01:24.469Z,16.00
2018-04-29T07:03:55.562Z,16.10
2018-04-29T07:06:26.282Z,16.21
2018-04-29T07:08:57.303Z,16.29
2018-04-29T07:11:28.901Z,16.35
2018-04-29T07:13:59.824Z,16.35
2018-04-29T07:16:30.019Z,16.37
2018-04-29T07:19:02.015Z,16.40
2018-04-29T07:21:32.201Z,16.44
2018-04-29T07:24:06.822Z,16.49
2018-04-29T07:26:39.471Z,16.54
2018-04-29T07:29:11.895Z,16.59
2018-04-29T07:31:43.449Z,16.63
2018-04-29T07:34:13.923Z,16.68
2018-04-29T07:36:45.791Z,16.75
2018-04-29T07:39:25.141Z,16.79
2018-04-29T07:41:57.724Z,16.84
2018-04-29T07:44:32.476Z,16.91
2018-04-29T07:47:04.844Z,16.97
2018-04-29T07:49:34.978Z,17.04
2018-04-29T07:52:06.004Z,17.10
2018-04-29T07:54:38.401Z,17.17
2018-04-29T07:57:08.559Z,17.25
2018-04-29T07:59:40.468Z,17.35
2018-04-29T08:02:12.161Z,17.42
2018-04-29T08:04:41.334Z,17.46
2018-04-29T08:07:12.121Z,17.48
2018-04-29T08:09:46.192Z,17.52
2018-04-29T08:12:16.419Z,17.57
2018-04-29T08:14:45.564Z,17.58
2018-04-29T08:17:13.954Z,17.60
2018-04-29T08:19:44.038Z,17.65
2018-04-29T08:22:13.127Z,17.71
2018-04-29T08:24:42.344Z,17.80
2018-04-29T08:27:10.714Z,17.87
2018-04-29T08:29:39.903Z,17.97
2018-04-29T08:32:09.022Z,18.05
2018-04-29T08:34:38.197Z,18.14
2018-04-29T08:37:07.482Z,18.25
2018-04-29T08:39:36.736Z,18.33
2018-04-29T08:42:05.073Z,18.44
2018-04-29T08:44:33.506Z,18.57
2018-04-29T08:47:02.595Z,18.71
2018-04-29T08:49:30.993Z,18.90
2018-04-29T08:51:59.483Z,18.96
2018-04-29T08:54:27.918Z,19.02
2018-04-29T08:56:56.281Z,19.16
2018-04-29T08:59:24.650Z,19.28
2018-04-29T09:01:53.787Z,19.40
2018-04-29T09:04:22.266Z,19.43
2018-04-29T09:06:51.465Z,19.44
2018-04-29T09:09:19.842Z,19.45
2018-04-29T09:11:48.349Z,19.46
2018-04-29T09:14:16.685Z,19.45
2018-04-29T09:16:45.143Z,19.42
2018-04-29T09:19:15.231Z,19.42
2018-04-29T09:21:43.598Z,19.47
2018-04-29T09:24:11.977Z,19.59
2018-04-29T09:26:40.411Z,19.70
2018-04-29T09:29:08.791Z,19.75
2018-04-29T09:31:37.121Z,19.81
2018-04-29T09:34:05.590Z,19.86
2018-04-29T09:36:34.143Z,19.89
2018-04-29T09:39:03.400Z,19.95
2018-04-29T09:41:31.817Z,20.02
2018-04-29T09:44:01.381Z,20.09
2018-04-29T09:46:29.756Z,20.11
2018-04-29T09:48:58.102Z,20.21
2018-04-29T09:51:26.431Z,20.18
2018-04-29T09:53:54.773Z,20.14
2018-04-29T09:56:23.133Z,20.09
2018-04-29T09:58:51.473Z,20.07
2018-04-29T10:01:25.444Z,20.14
2018-04-29T10:03:54.603Z,20.16
2018-04-29T10:06:23.066Z,20.18
2018-04-29T10:08:51.497Z,20.19
2018-04-29T10:11:20.343Z,20.29
2018-04-29T10:13:49.468Z,20.39
2018-04-29T10:16:17.858Z,20.48
2018-04-29T10:18:46.277Z,20.49
2018-04-29T10:21:15.346Z,20.52
2018-04-29T10:23:43.786Z,20.48
2018-04-29T10:26:12.146Z,20.47
2018-04-29T10:28:41.286Z,20.40
2018-04-29T10:31:09.707Z,20.34
2018-04-29T10:33:38.889Z,20.31
2018-04-29T10:36:07.341Z,20.32
2018-04-29T10:38:35.951Z,20.35
2018-04-29T10:41:04.891Z,20.38
2018-04-29T10:43:33.161Z,20.46
2018-04-29T10:46:02.292Z,20.60
2018-04-29T10:48:30.623Z,20.80
2018-04-29T10:50:59.075Z,21.00
2018-04-29T10:53:27.437Z,21.12
2018-04-29T10:55:55.833Z,21.26
2018-04-29T10:58:24.208Z,21.50
2018-04-29T11:00:53.281Z,21.64
2018-04-29T11:03:22.389Z,21.59
2018-04-29T11:05:50.796Z,21.49
2018-04-29T11:08:19.118Z,21.35
2018-04-29T11:10:47.483Z,21.35
2018-04-29T11:13:15.813Z,21.33
2018-04-29T11:15:44.242Z,21.29
2018-04-29T11:18:12.603Z,21.30
2018-04-29T11:20:41.807Z,21.25
2018-04-29T11:23:10.953Z,21.27
2018-04-29T11:25:39.329Z,21.26
2018-04-29T11:28:08.546Z,21.23
2018-04-29T11:30:36.906Z,21.22
2018-04-29T11:33:05.257Z,21.14
2018-04-29T11:35:34.468Z,21.23
2018-04-29T11:38:02.999Z,21.43
2018-04-29T11:40:32.452Z,21.60
2018-04-29T11:43:00.821Z,21.79
2018-04-29T11:45:29.948Z,21.88
2018-04-29T11:47:58.502Z,22.08
2018-04-29T11:50:26.989Z,22.36
2018-04-29T11:52:56.164Z,22.37
2018-04-29T11:55:24.543Z,22.33
2018-04-29T11:57:53.732Z,22.18
2018-04-29T12:00:22.883Z,22.02
2018-04-29T12:02:51.344Z,21.85
2018-04-29T12:05:20.370Z,21.84
2018-04-29T12:07:48.784Z,21.86
2018-04-29T12:10:18.074Z,21.80
2018-04-29T12:12:47.286Z,21.71
2018-04-29T12:15:16.822Z,21.75
2018-04-29T12:17:45.905Z,21.72
2018-04-29T12:20:16.775Z,21.73
2018-04-29T12:22:46.038Z,21.78
2018-04-29T12:25:14.399Z,21.94
2018-04-29T12:27:44.841Z,22.17
2018-04-29T12:30:13.427Z,22.30
2018-04-29T12:32:42.656Z,22.34
2018-04-29T12:35:12.056Z,22.58
2018-04-29T12:37:41.166Z,22.91
2018-04-29T12:40:09.609Z,23.16
2018-04-29T12:42:38.201Z,23.45
2018-04-29T12:45:07.414Z,23.55
2018-04-29T12:47:37.757Z,23.58
2018-04-29T12:50:06.892Z,23.53
2018-04-29T12:52:36.029Z,23.62
2018-04-29T12:55:04.422Z,23.68
2018-04-29T12:57:33.593Z,23.86
2018-04-29T13:00:02.184Z,23.97
2018-04-29T13:02:31.305Z,24.09
2018-04-29T13:05:00.680Z,24.14
2018-04-29T13:07:29.391Z,24.27
2018-04-29T13:09:57.946Z,24.40
2018-04-29T13:12:26.598Z,24.45
2018-04-29T13:14:55.770Z,24.46
2018-04-29T13:17:25.198Z,24.49
2018-04-29T13:19:57.826Z,24.49
2018-04-29T13:22:27.011Z,24.46
2018-04-29T13:24:56.159Z,24.39
2018-04-29T13:27:26.271Z,24.50
2018-04-29T13:29:55.437Z,24.49
2018-04-29T13:32:23.791Z,24.49
2018-04-29T13:34:53.440Z,24.66
2018-04-29T13:37:21.806Z,24.75
2018-04-29T13:39:52.800Z,24.89
2018-04-29T13:42:23.178Z,25.12
2018-04-29T13:47:35.417Z,25.19
2018-04-29T13:50:04.608Z,25.06
2018-04-29T13:52:32.991Z,25.15
2018-04-29T13:55:02.321Z,25.27
2018-04-29T13:57:32.135Z,25.39
2018-04-29T14:00:00.900Z,25.52
2018-04-29T14:02:30.869Z,25.55
2018-04-29T14:04:59.249Z,25.55
2018-04-29T14:07:27.699Z,25.68
2018-04-29T14:09:56.818Z,25.62
2018-04-29T14:12:25.192Z,25.83
2018-04-29T14:14:54.778Z,25.89
2018-04-29T14:17:23.678Z,25.85
2018-04-29T14:19:52.080Z,25.89
2018-04-29T14:22:20.604Z,25.93
2018-04-29T14:24:50.001Z,25.90
2018-04-29T14:27:20.115Z,26.07
2018-04-29T14:29:48.495Z,26.03
2018-04-29T14:32:20.336Z,25.87
2018-04-29T14:34:48.706Z,26.00
2018-04-29T14:37:19.190Z,26.09
2018-04-29T14:39:49.620Z,26.17
2018-04-29T14:42:20.466Z,26.21
2018-04-29T14:44:50.364Z,26.12
2018-04-29T14:47:19.525Z,26.06
2018-04-29T14:49:48.102Z,25.90
2018-04-29T14:52:16.537Z,25.80
2018-04-29T14:54:45.620Z,25.64
2018-04-29T14:57:14.318Z,25.39
2018-04-29T14:59:43.598Z,25.05
2018-04-29T15:02:14.867Z,24.61
2018-04-29T15:04:44.629Z,24.27
2018-04-29T15:07:13.839Z,24.11
2018-04-29T15:09:42.232Z,23.88
2018-04-29T15:12:11.491Z,23.68
2018-04-29T15:14:39.839Z,23.53
2018-04-29T15:17:10.487Z,23.37
2018-04-29T15:19:51.713Z,23.23
2018-04-29T15:22:20.256Z,23.14
2018-04-29T15:24:51.005Z,23.10
2018-04-29T15:27:19.511Z,23.02
2018-04-29T15:29:47.900Z,22.97
2018-04-29T15:32:17.061Z,22.93
2018-04-29T15:34:46.250Z,22.85
2018-04-29T15:37:14.623Z,22.74
2018-04-29T15:39:43.047Z,22.68
2018-04-29T15:42:12.984Z,22.65
2018-04-29T15:44:45.880Z,22.62
2018-04-29T15:47:16.652Z,22.57
2018-04-29T15:49:45.020Z,22.51
2018-04-29T15:52:14.502Z,22.45
2018-04-29T15:54:43.973Z,22.37
2018-04-29T15:57:13.187Z,22.35
2018-04-29T15:59:42.301Z,22.31
2018-04-29T16:02:13.854Z,22.17
2018-04-29T16:04:42.214Z,22.11
2018-04-29T16:07:11.369Z,22.06
2018-04-29T16:09:40.799Z,21.97
2018-04-29T16:12:09.164Z,21.94
2018-04-29T16:14:38.335Z,21.88
2018-04-29T16:17:06.711Z,21.82
2018-04-29T16:19:35.061Z,21.80
2018-04-29T16:22:03.547Z,21.71
2018-04-29T16:24:31.914Z,21.71
2018-04-29T16:27:01.087Z,21.70
2018-04-29T16:29:30.021Z,21.76
2018-04-29T16:31:58.427Z,21.80
2018-04-29T16:34:26.871Z,21.77
2018-04-29T16:36:56.350Z,21.67
2018-04-29T16:39:25.496Z,21.65
2018-04-29T16:41:54.017Z,21.61
2018-04-29T16:44:22.386Z,21.55
2018-04-29T16:46:50.770Z,21.53
2018-04-29T16:49:19.153Z,21.59
2018-04-29T16:51:48.088Z,21.67
2018-04-29T16:54:16.506Z,21.74
2018-04-29T16:56:44.893Z,21.78
2018-04-29T16:59:13.238Z,21.93
2018-04-29T17:01:41.624Z,22.03
2018-04-29T17:04:10.087Z,22.10
2018-04-29T17:06:39.009Z,22.15
2018-04-29T17:09:07.379Z,22.16
2018-04-29T17:11:35.731Z,22.19
2018-04-29T17:14:04.101Z,22.16
2018-04-29T17:16:33.225Z,22.11
2018-04-29T17:19:02.391Z,22.06
2018-04-29T17:21:31.574Z,22.01
2018-04-29T17:24:00.696Z,21.94
2018-04-29T17:26:29.241Z,21.88
2018-04-29T17:28:57.642Z,21.80
2018-04-29T17:31:25.990Z,21.77
2018-04-29T17:33:54.400Z,21.74
2018-04-29T17:36:24.202Z,21.74
2018-04-29T17:38:53.323Z,21.71
2018-04-29T17:41:21.679Z,21.71
2018-04-29T17:43:50.818Z,21.71
2018-04-29T17:46:20.184Z,21.71
2018-04-29T17:48:49.288Z,21.64
2018-04-29T17:51:17.628Z,21.64
2018-04-29T17:53:46.799Z,21.61
2018-04-29T17:56:16.156Z,21.59
2018-04-29T17:58:46.184Z,21.52
2018-04-29T18:01:15.326Z,21.53
2018-04-29T18:03:43.703Z,21.48
2018-04-29T18:06:12.885Z,21.43
2018-04-29T18:08:41.237Z,21.41
2018-04-29T18:11:09.571Z,21.36
2018-04-29T18:13:37.973Z,21.32
2018-04-29T18:16:06.384Z,21.32
2018-04-29T18:18:35.668Z,21.29
2018-04-29T18:21:04.070Z,21.24
2018-04-29T18:23:32.542Z,21.22
2018-04-29T18:26:00.896Z,21.16
2018-04-29T18:28:30.093Z,21.14
2018-04-29T18:30:59.275Z,21.09
2018-04-29T18:33:27.691Z,21.07
2018-04-29T18:35:56.863Z,21.00
2018-04-29T18:38:26.000Z,20.98
2018-04-29T18:40:55.245Z,20.95
2018-04-29T18:43:25.747Z,20.89
2018-04-29T18:45:54.643Z,20.86
2018-04-29T18:48:24.109Z,20.83
2018-04-29T18:50:54.970Z,20.79
2018-04-29T18:53:24.185Z,20.79
2018-04-29T18:59:25.026Z,20.73
2018-04-29T19:01:54.078Z,20.71
2018-04-29T19:04:26.344Z,20.71
2018-04-29T19:06:54.925Z,20.67
2018-04-29T19:09:24.297Z,20.63
2018-04-29T19:11:52.683Z,20.59
2018-04-29T19:14:21.121Z,20.59
2018-04-29T19:16:49.508Z,20.56
2018-04-29T19:19:18.568Z,20.56
2018-04-29T19:21:47.723Z,20.57
2018-04-29T19:24:17.093Z,20.55
2018-04-29T19:26:46.163Z,20.51
2018-04-29T19:29:16.253Z,20.51
2018-04-29T19:31:44.680Z,20.50
2018-04-29T19:34:13.857Z,20.46
2018-04-29T19:36:42.997Z,20.46
2018-04-29T19:39:11.414Z,20.44
2018-04-29T19:41:39.866Z,20.43
2018-04-29T19:44:09.016Z,20.38
2018-04-29T19:46:38.353Z,20.38
2018-04-29T19:49:06.751Z,20.29
2018-04-29T19:51:35.109Z,20.27
2018-04-29T19:54:03.517Z,20.26
2018-04-29T19:56:31.983Z,20.21
2018-04-29T19:59:00.860Z,20.22
2018-04-29T20:01:29.215Z,20.19
2018-04-29T20:03:57.583Z,20.16
2018-04-29T20:06:26.711Z,20.13
2018-04-29T20:08:55.099Z,20.11
2018-04-29T20:11:23.438Z,20.05
2018-04-29T20:13:52.557Z,20.03
2018-04-29T20:16:20.923Z,20.01
2018-04-29T20:18:50.652Z,19.99
2018-04-29T20:21:19.031Z,19.97
2018-04-29T20:23:47.484Z,19.91
2018-04-29T20:26:16.778Z,19.91
2018-04-29T20:28:45.194Z,19.86
2018-04-29T20:31:13.719Z,19.83
2018-04-29T20:33:43.002Z,19.81
2018-04-29T20:36:11.402Z,19.77
2018-04-29T20:38:39.782Z,19.70
2018-04-29T20:41:08.808Z,19.68
2018-04-29T20:43:37.488Z,19.65
2018-04-29T20:46:05.882Z,19.66
2018-04-29T20:48:34.267Z,19.60
2018-04-29T20:51:02.624Z,19.57
2018-04-29T20:53:31.755Z,19.53
2018-04-29T20:56:00.487Z,19.49
2018-04-29T20:58:29.134Z,19.45
2018-04-29T21:00:57.502Z,19.42
2018-04-29T21:03:25.901Z,19.42
2018-04-29T21:05:54.636Z,19.38
2018-04-29T21:08:23.729Z,19.35
2018-04-29T21:10:52.831Z,19.37
2018-04-29T21:13:22.019Z,19.36
2018-04-29T21:15:51.145Z,19.35
2018-04-29T21:18:19.483Z,19.37
2018-04-29T21:20:48.910Z,19.37
2018-04-29T21:23:17.270Z,19.36
2018-04-29T21:25:46.472Z,19.34
2018-04-29T21:28:15.609Z,19.38
2018-04-29T21:30:44.010Z,19.37
2018-04-29T21:33:12.377Z,19.37
2018-04-29T21:35:40.703Z,19.28
2018-04-29T21:38:10.541Z,19.29
2018-04-29T21:40:38.921Z,19.31
2018-04-29T21:43:07.819Z,19.30
2018-04-29T21:45:37.010Z,19.31
2018-04-29T21:48:05.434Z,19.31
2018-04-29T21:50:33.798Z,19.30
2018-04-29T21:53:02.163Z,19.29
2018-04-29T21:55:30.839Z,19.33
2018-04-29T21:57:59.236Z,19.32
2018-04-29T22:00:27.595Z,19.34
2018-04-29T22:02:56.641Z,19.32
2018-04-29T22:05:25.049Z,19.28
2018-04-29T22:07:53.396Z,19.24
2018-04-29T22:10:21.765Z,19.24
2018-04-29T22:12:50.103Z,19.21
2018-04-29T22:15:18.479Z,19.17
2018-04-29T22:17:46.874Z,19.23
2018-04-29T22:20:16.086Z,19.20
2018-04-29T22:22:44.445Z,19.21
2018-04-29T22:25:12.904Z,19.24
2018-04-29T22:27:41.291Z,19.21
2018-04-29T22:30:09.670Z,19.15
2018-04-29T22:32:38.701Z,19.08
2018-04-29T22:35:07.026Z,19.11
2018-04-29T22:37:36.150Z,19.05
2018-04-29T22:40:04.543Z,19.04
2018-04-29T22:42:32.911Z,18.98
2018-04-29T22:45:01.588Z,18.94
2018-04-29T22:47:30.071Z,19.03
2018-04-29T22:49:58.543Z,19.04
2018-04-29T22:52:26.918Z,18.99
2018-04-29T22:54:55.255Z,18.91
2018-04-29T22:57:24.388Z,18.98
2018-04-29T22:59:52.776Z,18.93
2018-04-29T23:02:21.170Z,18.90
2018-04-29T23:04:49.550Z,18.90
2018-04-29T23:07:17.949Z,18.85
2018-04-29T23:09:46.337Z,18.81
2018-04-29T23:12:15.386Z,18.76
2018-04-29T23:14:43.783Z,18.67
2018-04-29T23:17:12.216Z,18.58
2018-04-29T23:19:41.348Z,18.57
2018-04-29T23:22:09.769Z,18.56
2018-04-29T23:24:38.185Z,18.57
2018-04-29T23:27:07.011Z,18.54
2018-04-29T23:29:35.356Z,18.52
2018-04-29T23:32:03.788Z,18.50
2018-04-29T23:34:32.405Z,18.44
2018-04-29T23:37:01.545Z,18.43
2018-04-29T23:39:29.887Z,18.47
2018-04-29T23:41:58.300Z,18.49
2018-04-29T23:44:27.491Z,18.44
2018-04-29T23:46:55.831Z,18.44
2018-04-29T23:49:24.961Z,18.47
2018-04-29T23:51:53.308Z,18.50
2018-04-29T23:54:22.468Z,18.50
2018-04-29T23:56:50.848Z,18.53
2018-04-29T23:59:19.200Z,18.49
